Time;durP1;ratioP1;P1;durP2;ratioP2;P2;SDS_P1;SDS_P2;PMS_P1;PMS_P2;Temp;Humidity;BMP_temperature;BMP_pressure;BME280_temperature;BME280_humidity;BME280_pressure;Samples;Min_cycle;Max_cycle;Signal;HPM_P1;HPM_P2
2022/09/17 00:00:57;;;;;;;1.07;0.60;;;10.20;99.90;;;;;;4854845;29;20611;-86
2022/09/17 00:03:23;;;;;;;0.97;0.80;;;10.20;99.90;;;;;;4847749;29;20552;-87
2022/09/17 00:05:57;;;;;;;1.17;0.90;;;10.20;99.90;;;;;;4845612;29;20714;-88
2022/09/17 00:08:22;;;;;;;0.87;0.70;;;10.20;99.90;;;;;;4852869;29;20445;-87
2022/09/17 00:10:48;;;;;;;0.70;0.70;;;10.20;99.90;;;;;;4849659;29;20472;-87
2022/09/17 00:13:14;;;;;;;1.13;0.83;;;10.20;99.90;;;;;;4850191;29;20209;-88
2022/09/17 00:15:44;;;;;;;1.00;0.90;;;10.20;99.90;;;;;;4862566;29;20664;-87
2022/09/17 00:18:11;;;;;;;1.13;0.67;;;10.30;99.90;;;;;;4848375;29;20198;-88
2022/09/17 00:20:44;;;;;;;1.13;1.00;;;10.20;99.90;;;;;;4860175;29;20458;-88
2022/09/17 00:23:11;;;;;;;0.80;0.80;;;10.30;99.90;;;;;;4850974;29;20559;-88
2022/09/17 00:25:38;;;;;;;1.50;0.93;;;10.30;99.90;;;;;;4860986;29;20480;-88
2022/09/17 00:28:04;;;;;;;1.27;1.20;;;10.20;99.90;;;;;;4850786;29;20472;-89
2022/09/17 00:30:30;;;;;;;1.57;1.00;;;10.20;99.90;;;;;;4853797;29;20548;-89
2022/09/17 00:32:57;;;;;;;1.33;1.00;;;10.20;99.90;;;;;;4867615;29;20193;-89
2022/09/17 00:35:26;;;;;;;2.30;0.87;;;10.20;99.90;;;;;;4851640;29;20279;-88
2022/09/17 00:37:52;;;;;;;0.90;0.80;;;10.20;99.90;;;;;;4852969;29;20472;-88
2022/09/17 00:40:19;;;;;;;1.40;0.73;;;10.20;99.90;;;;;;4864571;29;20458;-86
2022/09/17 00:42:45;;;;;;;1.00;1.00;;;10.20;99.90;;;;;;4850720;29;20948;-87
2022/09/17 00:45:11;;;;;;;0.77;0.70;;;10.20;99.90;;;;;;4848537;29;20480;-88
2022/09/17 00:47:45;;;;;;;0.83;0.83;;;10.30;99.90;;;;;;4842633;29;20238;-87
2022/09/17 00:50:20;;;;;;;0.93;0.93;;;10.20;99.90;;;;;;4844248;29;20444;-88
2022/09/17 00:52:50;;;;;;;0.80;0.80;;;10.30;99.90;;;;;;4849408;29;20453;-88
2022/09/17 00:55:25;;;;;;;0.80;0.80;;;10.30;99.90;;;;;;4850179;29;20462;-88
2022/09/17 00:57:55;;;;;;;2.93;0.97;;;10.30;99.90;;;;;;4847826;29;20448;-89
2022/09/17 01:00:21;;;;;;;1.07;0.90;;;10.30;99.90;;;;;;4853103;29;20453;-88
2022/09/17 01:02:47;;;;;;;2.40;1.13;;;10.30;99.90;;;;;;4849113;29;20793;-88
2022/09/17 01:05:14;;;;;;;1.20;1.10;;;10.20;99.90;;;;;;4854633;29;20561;-88
2022/09/17 01:07:51;;;;;;;1.50;1.00;;;10.20;99.90;;;;;;4853775;29;20211;-87
2022/09/17 01:10:34;;;;;;;1.40;1.30;;;10.20;99.90;;;;;;4874016;29;21023;-88
2022/09/17 01:13:29;;;;;;;1.17;1.07;;;10.30;99.90;;;;;;4855864;29;20481;-88
2022/09/17 01:16:16;;;;;;;1.73;1.47;;;10.30;99.90;;;;;;4853344;29;20449;-88
2022/09/17 01:18:57;;;;;;;1.60;1.10;;;10.40;99.90;;;;;;4876937;29;20441;-88
2022/09/17 01:21:29;;;;;;;0.90;0.90;;;10.40;99.90;;;;;;4859561;29;20442;-88
2022/09/17 01:24:05;;;;;;;1.30;1.20;;;10.40;99.90;;;;;;4870373;29;20445;-88
2022/09/17 01:26:55;;;;;;;1.03;0.90;;;10.40;99.90;;;;;;4854566;29;20481;-87
2022/09/17 01:30:15;;;;;;;4.10;1.40;;;10.40;99.90;;;;;;4872598;29;21044;-88
2022/09/17 01:33:20;;;;;;;2.17;1.20;;;10.50;99.90;;;;;;4855896;29;20506;-87
2022/09/17 01:35:58;;;;;;;2.60;2.03;;;10.40;99.90;;;;;;4856268;29;20548;-89
2022/09/17 01:38:44;;;;;;;2.70;1.33;;;10.40;99.90;;;;;;4855501;29;20839;-88
2022/09/17 01:41:10;;;;;;;1.30;1.20;;;10.40;99.90;;;;;;4852990;29;20445;-88
2022/09/17 01:43:51;;;;;;;2.97;1.20;;;10.40;99.90;;;;;;4857600;29;20459;-87
2022/09/17 01:46:34;;;;;;;1.63;1.10;;;10.50;99.90;;;;;;4874292;29;20476;-86
2022/09/17 01:49:03;;;;;;;1.87;1.03;;;10.40;99.90;;;;;;4847602;29;20457;-89
2022/09/17 01:51:36;;;;;;;1.30;1.20;;;10.40;99.90;;;;;;4851571;29;20487;-87
2022/09/17 01:54:11;;;;;;;1.43;1.33;;;10.30;99.90;;;;;;4861494;29;20476;-88
2022/09/17 01:56:50;;;;;;;1.83;1.33;;;10.30;99.90;;;;;;4856587;29;20448;-87
2022/09/17 01:59:24;;;;;;;2.40;1.30;;;10.20;99.90;;;;;;4859494;29;20452;-87
2022/09/17 02:01:56;;;;;;;4.13;1.50;;;10.10;99.90;;;;;;4860243;29;20436;-88
2022/09/17 02:04:28;;;;;;;1.57;1.47;;;10.20;99.90;;;;;;4859572;29;20449;-87
2022/09/17 02:07:00;;;;;;;1.87;1.77;;;10.20;99.90;;;;;;4866438;29;20457;-88
2022/09/17 02:09:37;;;;;;;1.57;1.47;;;10.20;99.90;;;;;;4848902;29;20437;-86
2022/09/17 02:12:09;;;;;;;1.70;1.60;;;10.20;99.90;;;;;;4851116;29;20500;-87
2022/09/17 02:14:59;;;;;;;1.83;1.73;;;10.20;99.90;;;;;;4852393;29;20890;-87
2022/09/17 02:17:38;;;;;;;2.23;1.53;;;10.20;99.90;;;;;;4848817;29;20493;-87
2022/09/17 02:20:05;;;;;;;1.60;1.50;;;10.20;99.90;;;;;;4858682;29;20456;-89
2022/09/17 02:22:44;;;;;;;1.83;1.73;;;10.10;99.90;;;;;;4864790;29;20449;-88
2022/09/17 02:25:21;;;;;;;1.70;1.60;;;10.00;99.90;;;;;;4861060;29;20511;-89
2022/09/17 02:28:17;;;;;;;2.43;1.50;;;10.10;99.90;;;;;;4861372;29;21071;-88
2022/09/17 02:30:43;;;;;;;1.60;1.50;;;10.10;99.90;;;;;;4855252;29;20987;-89
2022/09/17 02:33:14;;;;;;;1.63;1.40;;;10.20;99.90;;;;;;4859323;29;20450;-88
2022/09/17 02:35:42;;;;;;;1.80;1.50;;;10.10;99.90;;;;;;4860184;29;20317;-88
2022/09/17 02:38:08;;;;;;;1.40;1.30;;;10.00;99.90;;;;;;4875247;29;20437;-89
2022/09/17 02:40:46;;;;;;;1.70;1.60;;;10.10;99.90;;;;;;4855834;29;20452;-88
2022/09/17 02:43:39;;;;;;;2.83;1.60;;;10.00;99.90;;;;;;4866346;29;20783;-88
2022/09/17 02:46:44;;;;;;;1.90;1.80;;;10.00;99.90;;;;;;4864290;29;20512;-89
2022/09/17 02:49:48;;;;;;;1.60;1.50;;;10.00;99.90;;;;;;4868501;29;20997;-89
2022/09/17 02:52:22;;;;;;;1.30;1.30;;;10.00;99.90;;;;;;4885442;29;20600;-89
2022/09/17 02:55:06;;;;;;;3.13;1.90;;;10.00;99.90;;;;;;4864470;29;20977;-89
2022/09/17 02:58:21;;;;;;;1.50;1.33;;;10.00;99.90;;;;;;4863101;29;21289;-89
2022/09/17 03:00:47;;;;;;;4.43;2.43;;;10.00;99.90;;;;;;4830747;29;20501;-89
2022/09/17 03:03:29;;;;;;;2.20;1.63;;;10.00;99.90;;;;;;4859298;29;20961;-90
2022/09/17 03:05:56;;;;;;;2.00;1.43;;;10.00;99.90;;;;;;4859926;29;20500;-88
2022/09/17 03:08:29;;;;;;;4.97;2.13;;;9.90;99.90;;;;;;4856635;29;20444;-88
2022/09/17 03:10:55;;;;;;;2.73;1.50;;;9.90;99.90;;;;;;4866858;29;21068;-89
2022/09/17 03:13:20;;;;;;;1.50;1.40;;;9.90;99.90;;;;;;4855209;29;20441;-88
2022/09/17 03:15:46;;;;;;;1.60;1.40;;;10.00;99.90;;;;;;4857742;29;20857;-88
2022/09/17 03:18:12;;;;;;;1.73;1.47;;;9.90;99.90;;;;;;4862585;29;20694;-86
2022/09/17 03:20:37;;;;;;;2.17;1.63;;;9.90;99.90;;;;;;4853771;29;20323;-87
2022/09/17 03:23:03;;;;;;;2.20;1.50;;;9.90;99.90;;;;;;4848352;29;20276;-87
2022/09/17 03:25:29;;;;;;;1.37;1.30;;;9.80;99.90;;;;;;4849639;29;20227;-86
2022/09/17 03:27:54;;;;;;;1.37;1.27;;;9.80;99.90;;;;;;4852153;29;20217;-88
2022/09/17 03:30:20;;;;;;;1.73;1.53;;;9.70;99.90;;;;;;4847907;29;20213;-87
2022/09/17 03:32:48;;;;;;;2.00;1.80;;;9.70;99.90;;;;;;4848077;29;20185;-87
2022/09/17 03:35:14;;;;;;;2.03;1.40;;;9.60;99.90;;;;;;4862893;29;20664;-87
2022/09/17 03:37:42;;;;;;;2.33;1.60;;;9.60;99.90;;;;;;4845759;29;20477;-87
2022/09/17 03:40:08;;;;;;;2.07;1.83;;;9.70;99.90;;;;;;4849758;29;20445;-87
2022/09/17 03:42:36;;;;;;;2.17;1.43;;;9.70;99.90;;;;;;4862957;29;20192;-88
2022/09/17 03:45:02;;;;;;;4.47;1.90;;;9.60;99.90;;;;;;4852739;29;20481;-89
2022/09/17 03:47:34;;;;;;;3.33;1.47;;;9.60;99.90;;;;;;4848354;29;20460;-89
2022/09/17 03:50:13;;;;;;;4.93;1.60;;;9.60;99.90;;;;;;4869165;29;20997;-89
2022/09/17 03:52:39;;;;;;;2.60;1.80;;;9.60;99.90;;;;;;4844944;29;20460;-89
2022/09/17 03:55:05;;;;;;;4.43;2.13;;;9.50;99.90;;;;;;4849717;29;20296;-88
2022/09/17 03:57:31;;;;;;;3.50;2.00;;;9.50;99.90;;;;;;4862813;29;20193;-88
2022/09/17 03:59:57;;;;;;;2.43;1.73;;;9.60;99.90;;;;;;4853960;29;20458;-88
2022/09/17 04:02:23;;;;;;;1.77;1.50;;;9.50;99.90;;;;;;4846651;29;20216;-88
2022/09/17 04:04:49;;;;;;;5.80;1.83;;;9.50;99.90;;;;;;4858819;29;20246;-88
2022/09/17 04:07:15;;;;;;;3.73;3.50;;;9.40;99.90;;;;;;4847639;29;20449;-88
2022/09/17 04:09:41;;;;;;;3.03;1.57;;;9.50;99.90;;;;;;4834050;29;20281;-88
2022/09/17 04:12:06;;;;;;;1.60;1.50;;;9.60;99.90;;;;;;4846281;29;20196;-86
2022/09/17 04:14:41;;;;;;;4.77;1.50;;;9.50;99.90;;;;;;4853887;29;20193;-86
2022/09/17 04:17:06;;;;;;;2.83;1.90;;;9.50;99.90;;;;;;4855479;29;21038;-87
2022/09/17 04:19:32;;;;;;;3.67;3.10;;;9.50;99.90;;;;;;4860573;29;21379;-88
2022/09/17 04:21:59;;;;;;;3.90;1.67;;;9.50;99.90;;;;;;4868783;29;20192;-87
2022/09/17 04:24:24;;;;;;;2.27;1.83;;;9.50;99.90;;;;;;4846606;29;20273;-89
2022/09/17 04:26:50;;;;;;;5.20;1.60;;;9.50;99.90;;;;;;4859095;29;20496;-91
2022/09/17 04:29:16;;;;;;;3.87;1.30;;;9.60;99.90;;;;;;4853798;29;20261;-90
2022/09/17 04:31:42;;;;;;;2.17;1.40;;;9.60;99.90;;;;;;4852389;29;20192;-88
2022/09/17 04:34:07;;;;;;;2.93;1.40;;;9.60;99.90;;;;;;4845764;29;20671;-89
2022/09/17 04:36:33;;;;;;;1.50;1.23;;;9.60;99.90;;;;;;4848486;29;20202;-88
2022/09/17 04:38:59;;;;;;;2.50;1.53;;;9.60;99.90;;;;;;4844523;29;20207;-87
2022/09/17 04:41:24;;;;;;;3.20;1.50;;;9.60;99.90;;;;;;4850783;29;20743;-86
2022/09/17 04:43:51;;;;;;;3.13;1.20;;;9.60;99.90;;;;;;4827846;29;20197;-88
2022/09/17 04:46:17;;;;;;;4.97;1.67;;;9.60;99.90;;;;;;4873370;29;20696;-86
2022/09/17 04:48:43;;;;;;;2.30;1.50;;;9.60;99.90;;;;;;4857475;29;20450;-88
2022/09/17 04:51:08;;;;;;;2.33;1.53;;;9.60;99.90;;;;;;4859138;29;20674;-87
2022/09/17 04:53:34;;;;;;;2.53;1.40;;;9.60;99.90;;;;;;4853515;29;20204;-87
2022/09/17 04:56:00;;;;;;;3.43;1.50;;;9.60;99.90;;;;;;4844801;29;20195;-87
2022/09/17 04:58:34;;;;;;;4.47;1.17;;;9.70;99.90;;;;;;4862784;29;20203;-88
2022/09/17 05:01:00;;;;;;;2.50;1.70;;;9.70;99.90;;;;;;4865178;29;20571;-88
2022/09/17 05:03:26;;;;;;;2.40;1.57;;;9.70;99.90;;;;;;4846595;29;20544;-89
2022/09/17 05:05:57;;;;;;;3.63;1.90;;;9.70;99.90;;;;;;4867388;29;20597;-88
2022/09/17 05:08:26;;;;;;;2.10;1.53;;;9.70;99.90;;;;;;4848473;29;20227;-88
2022/09/17 05:10:57;;;;;;;2.40;1.80;;;9.80;99.90;;;;;;4847025;29;20449;-88
2022/09/17 05:13:23;;;;;;;3.50;1.70;;;9.80;99.90;;;;;;4842303;29;20460;-89
2022/09/17 05:15:49;;;;;;;8.07;1.90;;;9.80;99.90;;;;;;4865877;29;20445;-90
2022/09/17 05:18:14;;;;;;;4.70;1.70;;;9.90;99.90;;;;;;4849947;29;20460;-88
2022/09/17 05:20:41;;;;;;;2.03;1.70;;;9.90;99.90;;;;;;4848265;29;20193;-87
2022/09/17 05:23:10;;;;;;;5.17;1.77;;;9.90;99.90;;;;;;4864545;29;20245;-88
2022/09/17 05:25:35;;;;;;;4.20;1.70;;;9.90;99.90;;;;;;4862344;29;21188;-88
2022/09/17 05:28:09;;;;;;;3.93;1.60;;;9.80;99.90;;;;;;4849055;29;20448;-88
2022/09/17 05:30:35;;;;;;;6.70;2.00;;;9.80;99.90;;;;;;4851085;29;20193;-87
2022/09/17 05:33:10;;;;;;;3.90;1.80;;;9.80;99.90;;;;;;4853022;29;20452;-87
2022/09/17 05:35:36;;;;;;;7.00;1.90;;;9.80;99.90;;;;;;4848518;29;20401;-88
2022/09/17 05:38:04;;;;;;;3.07;1.50;;;9.80;99.90;;;;;;4850718;29;21014;-87
2022/09/17 05:40:31;;;;;;;2.63;2.00;;;9.80;99.90;;;;;;4852062;29;20457;-88
2022/09/17 05:43:01;;;;;;;4.87;1.80;;;9.80;99.90;;;;;;4865136;29;20449;-88
2022/09/17 05:45:27;;;;;;;6.70;1.90;;;9.70;99.90;;;;;;4851504;29;20990;-88
2022/09/17 05:47:56;;;;;;;3.87;1.50;;;9.80;99.90;;;;;;4850096;29;20492;-88
2022/09/17 05:50:22;;;;;;;2.30;1.67;;;9.80;99.90;;;;;;4850126;29;20444;-89
2022/09/17 05:52:49;;;;;;;2.37;1.67;;;9.70;99.90;;;;;;4832146;29;20482;-90
2022/09/17 05:55:15;;;;;;;2.00;1.80;;;9.70;99.90;;;;;;4853145;29;20465;-87
2022/09/17 05:57:41;;;;;;;4.13;1.90;;;9.80;99.90;;;;;;4851242;29;20456;-88
2022/09/17 06:00:08;;;;;;;2.27;1.97;;;9.80;99.90;;;;;;4848713;29;20473;-88
2022/09/17 06:02:35;;;;;;;2.50;1.90;;;9.80;99.90;;;;;;4867526;29;20320;-88
2022/09/17 06:05:02;;;;;;;4.70;2.03;;;10.00;99.90;;;;;;4853628;29;20540;-88
2022/09/17 06:07:28;;;;;;;4.20;2.67;;;10.10;99.90;;;;;;4850604;29;20519;-88
2022/09/17 06:09:55;;;;;;;3.03;2.07;;;10.10;99.90;;;;;;4854015;29;20437;-88
2022/09/17 06:12:22;;;;;;;3.10;1.87;;;10.20;99.90;;;;;;4845227;29;20457;-88
2022/09/17 06:14:54;;;;;;;2.40;1.93;;;10.20;99.90;;;;;;4853713;29;20442;-87
2022/09/17 06:17:24;;;;;;;4.53;2.13;;;10.20;99.90;;;;;;4849821;29;20544;-87
2022/09/17 06:19:53;;;;;;;4.77;2.00;;;10.20;99.90;;;;;;4849879;29;20449;-87
2022/09/17 06:22:19;;;;;;;3.47;1.87;;;10.30;99.90;;;;;;4864527;29;20449;-88
2022/09/17 06:24:45;;;;;;;2.67;2.13;;;10.30;99.90;;;;;;4851693;29;20454;-88
2022/09/17 06:27:14;;;;;;;9.40;2.20;;;10.50;99.90;;;;;;4833983;29;21096;-89
2022/09/17 06:29:41;;;;;;;2.20;2.00;;;10.60;99.90;;;;;;4846823;29;20449;-88
2022/09/17 06:32:11;;;;;;;3.70;1.80;;;10.50;99.90;;;;;;4852280;29;20453;-88
2022/09/17 06:34:37;;;;;;;2.93;2.10;;;10.40;99.90;;;;;;4849530;29;20959;-90
2022/09/17 06:37:03;;;;;;;3.67;2.30;;;10.50;99.90;;;;;;4850068;29;20453;-89
2022/09/17 06:39:29;;;;;;;5.13;2.30;;;10.60;99.90;;;;;;4851138;29;20465;-89
2022/09/17 06:41:56;;;;;;;4.73;2.10;;;10.50;99.90;;;;;;4848521;29;20196;-88
2022/09/17 06:44:29;;;;;;;2.90;2.43;;;10.40;99.90;;;;;;4863790;29;20900;-88
2022/09/17 06:46:56;;;;;;;3.67;2.97;;;10.50;99.90;;;;;;4845763;29;21263;-88
2022/09/17 06:49:23;;;;;;;2.90;1.87;;;10.70;99.90;;;;;;4852653;29;20538;-88
2022/09/17 06:51:48;;;;;;;3.10;2.27;;;10.80;99.90;;;;;;4843886;29;20534;-89
2022/09/17 06:54:14;;;;;;;4.87;2.23;;;10.80;99.90;;;;;;4854370;29;20453;-88
2022/09/17 06:56:40;;;;;;;2.63;2.17;;;10.60;99.90;;;;;;4853535;29;20204;-90
2022/09/17 06:59:05;;;;;;;5.13;2.23;;;10.50;99.90;;;;;;4855026;29;20616;-88
2022/09/17 07:01:31;;;;;;;3.13;2.23;;;10.50;99.90;;;;;;4852064;29;20204;-89
2022/09/17 07:03:57;;;;;;;5.93;2.50;;;10.50;99.90;;;;;;4876958;29;20668;-87
2022/09/17 07:06:23;;;;;;;5.63;2.10;;;10.40;99.90;;;;;;4861177;29;20489;-89
2022/09/17 07:08:49;;;;;;;5.67;2.00;;;10.40;99.90;;;;;;4853087;29;20624;-87
2022/09/17 07:14:23;;;;;;;2.10;2.00;;;10.30;99.90;;;;;;4868783;29;20220;-90
2022/09/17 07:16:54;;;;;;;5.17;2.40;;;10.40;99.90;;;;;;4871454;29;20517;-88
2022/09/17 07:20:25;;;;;;;4.33;2.33;;;10.40;99.90;;;;;;4853919;29;20801;-90
2022/09/17 07:23:01;;;;;;;4.00;2.40;;;10.50;99.90;;;;;;4872266;29;20456;-91
2022/09/17 07:25:33;;;;;;;7.73;2.63;;;10.50;99.90;;;;;;4847589;29;20477;-88
2022/09/17 07:28:01;;;;;;;3.83;1.90;;;10.50;99.90;;;;;;4866475;29;20449;-89
2022/09/17 07:30:27;;;;;;;5.93;2.27;;;10.40;99.90;;;;;;4849643;29;20445;-89
2022/09/17 07:32:53;;;;;;;2.53;2.33;;;10.30;99.90;;;;;;4857794;29;21018;-90
2022/09/17 07:35:18;;;;;;;3.20;2.63;;;10.20;99.90;;;;;;4877407;29;20197;-90
2022/09/17 07:37:44;;;;;;;5.00;2.63;;;10.20;99.90;;;;;;4834349;29;20196;-89
2022/09/17 07:40:09;;;;;;;4.07;2.17;;;10.10;99.90;;;;;;4862919;29;20210;-88
2022/09/17 07:42:59;;;;;;;3.03;2.27;;;9.90;99.90;;;;;;4883287;29;20189;-89
2022/09/17 07:45:24;;;;;;;2.37;2.17;;;9.90;99.90;;;;;;4875310;29;20238;-89
2022/09/17 07:47:56;;;;;;;3.17;2.87;;;9.90;99.90;;;;;;4875535;29;20453;-89
2022/09/17 07:50:22;;;;;;;4.07;2.00;;;9.80;99.90;;;;;;4859544;29;20588;-88
2022/09/17 07:52:59;;;;;;;5.80;2.10;;;9.80;99.90;;;;;;4856498;29;20640;-89
2022/09/17 07:55:41;;;;;;;4.23;2.63;;;9.70;99.90;;;;;;4872722;29;20251;-88
2022/09/17 07:58:14;;;;;;;2.60;1.83;;;9.70;99.90;;;;;;4868886;29;20484;-89
2022/09/17 08:00:43;;;;;;;4.27;2.23;;;9.80;99.90;;;;;;4869100;29;20453;-89
2022/09/17 08:03:11;;;;;;;3.77;2.80;;;9.80;99.90;;;;;;4874096;29;20449;-90
2022/09/17 08:05:47;;;;;;;2.97;2.13;;;9.90;99.90;;;;;;4857912;29;20489;-90
2022/09/17 08:08:13;;;;;;;2.30;2.10;;;10.00;99.90;;;;;;4857831;29;20489;-89
2022/09/17 08:10:41;;;;;;;3.60;2.90;;;9.90;99.90;;;;;;4858715;29;20457;-89
2022/09/17 08:13:11;;;;;;;4.13;2.27;;;9.80;99.90;;;;;;4855980;29;20205;-88
2022/09/17 08:15:37;;;;;;;3.53;2.97;;;9.50;99.90;;;;;;4860856;29;20493;-89
2022/09/17 08:18:03;;;;;;;2.13;1.93;;;9.50;99.90;;;;;;4865838;29;20502;-91
2022/09/17 08:20:31;;;;;;;2.43;2.23;;;9.30;99.90;;;;;;4867863;29;20275;-89
2022/09/17 08:22:58;;;;;;;2.87;2.57;;;9.30;99.90;;;;;;4873418;29;20197;-89
2022/09/17 08:25:24;;;;;;;5.50;2.80;;;9.20;99.90;;;;;;4864865;29;20476;-90
2022/09/17 08:27:54;;;;;;;4.10;2.57;;;9.30;99.90;;;;;;4872685;29;20450;-89
2022/09/17 08:30:21;;;;;;;3.33;2.60;;;9.30;99.90;;;;;;4876034;29;20201;-85
2022/09/17 08:32:46;;;;;;;4.10;2.90;;;9.40;99.90;;;;;;4859215;29;20798;-88
2022/09/17 08:35:15;;;;;;;3.70;3.00;;;9.40;99.90;;;;;;4858620;29;20453;-89
2022/09/17 08:37:41;;;;;;;2.70;2.20;;;9.40;99.90;;;;;;4865218;29;20215;-89
2022/09/17 08:40:13;;;;;;;3.63;1.90;;;9.50;99.90;;;;;;4866392;29;20445;-90
2022/09/17 08:43:01;;;;;;;4.00;2.30;;;9.60;99.90;;;;;;4859638;29;20579;-90
2022/09/17 08:45:28;;;;;;;2.23;2.03;;;9.60;99.90;;;;;;4863086;29;20500;-90
2022/09/17 08:48:09;;;;;;;2.00;1.80;;;9.60;99.90;;;;;;4861115;29;20609;-89
2022/09/17 08:50:40;;;;;;;5.77;2.00;;;9.60;99.90;;;;;;4847718;29;20460;-89
2022/09/17 08:53:29;;;;;;;2.57;2.17;;;9.80;99.90;;;;;;4858965;29;20623;-87
2022/09/17 08:56:08;;;;;;;2.90;2.60;;;9.80;99.90;;;;;;4857838;29;20461;-88
2022/09/17 08:58:48;;;;;;;3.47;2.40;;;9.90;99.90;;;;;;4874623;29;20852;-89
2022/09/17 09:01:34;;;;;;;2.97;2.13;;;10.10;99.90;;;;;;4859762;29;20463;-87
2022/09/17 09:04:34;;;;;;;4.00;2.07;;;10.20;99.90;;;;;;4868014;29;20445;-88
2022/09/17 09:07:12;;;;;;;2.07;1.90;;;10.10;99.90;;;;;;4866622;29;20484;-87
2022/09/17 09:10:05;;;;;;;4.50;2.50;;;10.20;99.90;;;;;;4861967;29;20448;-88
2022/09/17 09:12:51;;;;;;;5.53;3.07;;;10.40;99.90;;;;;;4859948;29;20460;-87
2022/09/17 09:15:20;;;;;;;3.60;2.33;;;10.70;99.90;;;;;;4861137;29;20441;-87
2022/09/17 09:17:48;;;;;;;4.07;2.23;;;10.80;99.90;;;;;;4879098;29;20472;-87
2022/09/17 09:20:39;;;;;;;3.73;2.23;;;10.90;99.90;;;;;;4873269;29;20830;-86
2022/09/17 09:23:17;;;;;;;5.03;2.13;;;11.10;99.90;;;;;;4873707;29;20548;-86
2022/09/17 09:25:53;;;;;;;6.73;2.13;;;11.20;99.90;;;;;;4866567;29;20492;-87
2022/09/17 09:28:46;;;;;;;5.57;2.10;;;11.40;99.90;;;;;;4865157;29;20519;-85
2022/09/17 09:31:31;;;;;;;7.70;2.50;;;11.40;99.90;;;;;;4866701;29;20449;-86
2022/09/17 09:33:58;;;;;;;8.83;2.20;;;11.30;99.90;;;;;;4857562;29;21188;-85
2022/09/17 09:36:31;;;;;;;4.13;2.70;;;11.40;99.90;;;;;;4872833;29;21111;-86
2022/09/17 09:39:01;;;;;;;5.20;2.83;;;11.50;99.90;;;;;;4857076;29;20500;-86
2022/09/17 09:41:41;;;;;;;4.63;2.90;;;11.50;99.90;;;;;;4858059;29;20541;-85
2022/09/17 09:44:12;;;;;;;4.93;2.20;;;11.40;99.90;;;;;;4850717;29;20653;-86
2022/09/17 09:46:49;;;;;;;6.53;2.60;;;11.60;99.90;;;;;;4854548;29;20970;-84
2022/09/17 09:49:21;;;;;;;3.73;2.10;;;11.60;99.90;;;;;;4856360;29;20912;-85
2022/09/17 09:52:16;;;;;;;6.87;2.40;;;11.60;99.90;;;;;;4847978;29;20452;-85
2022/09/17 09:55:16;;;;;;;6.37;2.40;;;11.80;99.90;;;;;;4850953;29;21175;-85
2022/09/17 09:57:47;;;;;;;5.53;2.20;;;11.80;99.90;;;;;;4859695;29;20986;-84
2022/09/17 10:00:28;;;;;;;8.10;2.57;;;11.70;99.90;;;;;;4868606;29;20947;-85
2022/09/17 10:03:10;;;;;;;6.90;2.87;;;11.60;99.90;;;;;;4864163;29;20459;-85
2022/09/17 10:05:36;;;;;;;7.23;2.83;;;11.70;99.90;;;;;;4859872;29;20495;-85
2022/09/17 10:08:13;;;;;;;6.03;2.40;;;12.00;99.90;;;;;;4854387;29;20453;-85
2022/09/17 10:11:00;;;;;;;5.67;2.00;;;12.00;99.90;;;;;;4856775;29;20193;-86
2022/09/17 10:13:49;;;;;;;5.07;1.90;;;11.90;99.90;;;;;;4852878;29;20457;-83
2022/09/17 10:16:26;;;;;;;8.53;2.53;;;11.80;99.90;;;;;;4852388;29;20442;-84
2022/09/17 10:19:31;;;;;;;8.03;2.80;;;11.90;99.90;;;;;;4864728;29;20449;-85
2022/09/17 10:21:56;;;;;;;4.80;2.67;;;11.90;99.90;;;;;;4861774;29;20455;-85
2022/09/17 10:24:31;;;;;;;5.13;2.50;;;11.80;99.90;;;;;;4868915;29;20434;-85
2022/09/17 10:27:12;;;;;;;6.10;1.93;;;11.60;99.90;;;;;;4868660;29;20933;-84
2022/09/17 10:29:54;;;;;;;4.20;2.80;;;11.50;99.90;;;;;;4866709;29;20436;-85
2022/09/17 10:32:29;;;;;;;6.63;2.60;;;11.60;99.90;;;;;;4869802;29;20452;-85
2022/09/17 10:35:14;;;;;;;5.07;2.57;;;11.80;99.90;;;;;;4854803;29;20447;-87
2022/09/17 10:38:03;;;;;;;2.80;2.27;;;12.20;99.90;;;;;;4866345;29;20464;-86
2022/09/17 10:40:30;;;;;;;7.87;2.10;;;12.60;99.90;;;;;;4875677;29;20441;-86
2022/09/17 10:43:16;;;;;;;4.80;2.60;;;12.40;99.90;;;;;;4852751;29;20503;-83
2022/09/17 10:45:45;;;;;;;4.90;2.80;;;12.80;99.90;;;;;;4853998;29;20537;-84
2022/09/17 10:48:22;;;;;;;4.80;2.97;;;13.10;99.90;;;;;;4851644;29;20453;-83
2022/09/17 10:51:01;;;;;;;2.40;1.87;;;13.40;99.90;;;;;;4872207;29;20484;-85
2022/09/17 10:53:28;;;;;;;3.00;1.73;;;13.30;99.90;;;;;;4856297;29;20469;-84
2022/09/17 10:56:19;;;;;;;3.70;2.20;;;13.00;99.90;;;;;;4861327;29;21125;-84
2022/09/17 10:59:05;;;;;;;2.73;2.30;;;13.40;99.90;;;;;;4851177;29;20485;-85
2022/09/17 11:02:15;;;;;;;1.90;1.57;;;13.60;99.90;;;;;;4852486;29;20441;-85
2022/09/17 11:04:59;;;;;;;10.50;1.93;;;13.20;99.90;;;;;;4835164;29;20455;-84
2022/09/17 11:07:42;;;;;;;2.00;1.50;;;13.50;99.90;;;;;;4848241;29;20535;-85
2022/09/17 11:10:32;;;;;;;3.60;1.90;;;13.90;99.90;;;;;;4851016;29;20459;-85
2022/09/17 11:13:06;;;;;;;3.73;1.67;;;13.80;99.90;;;;;;4845714;29;21357;-84
2022/09/17 11:16:06;;;;;;;3.00;1.80;;;13.70;99.90;;;;;;4853319;29;20859;-84
2022/09/17 11:18:50;;;;;;;2.70;1.40;;;13.90;99.90;;;;;;4855142;29;20445;-84
2022/09/17 11:22:01;;;;;;;2.40;1.57;;;14.20;99.90;;;;;;4851576;29;20449;-85
2022/09/17 11:24:51;;;;;;;3.57;1.57;;;13.90;99.90;;;;;;4822097;29;20554;-85
2022/09/17 11:28:04;;;;;;;2.90;1.60;;;13.80;99.90;;;;;;4815225;29;20696;-84
2022/09/17 11:30:51;;;;;;;2.93;1.20;;;13.70;99.90;;;;;;4813290;29;20459;-84
2022/09/17 11:33:35;;;;;;;3.40;1.70;;;13.90;99.90;;;;;;4863207;29;20457;-84
2022/09/17 11:36:18;;;;;;;3.20;1.97;;;13.80;99.90;;;;;;4866771;29;20432;-85
2022/09/17 11:38:48;;;;;;;4.03;2.60;;;13.80;99.90;;;;;;4853739;29;20805;-84
2022/09/17 11:41:28;;;;;;;4.00;1.10;;;13.90;99.90;;;;;;4866220;29;20453;-84
2022/09/17 11:44:12;;;;;;;2.37;1.50;;;14.10;99.90;;;;;;4850886;29;20505;-84
2022/09/17 11:47:39;;;;;;;2.00;1.30;;;14.30;99.80;;;;;;4864497;29;20503;-84
2022/09/17 11:50:27;;;;;;;2.60;1.20;;;14.20;99.60;;;;;;4828174;29;20509;-85
2022/09/17 11:53:18;;;;;;;2.23;1.47;;;14.50;99.50;;;;;;4866307;29;20811;-85
2022/09/17 11:55:49;;;;;;;2.30;2.10;;;14.60;99.70;;;;;;4867865;29;20468;-85
2022/09/17 11:58:28;;;;;;;2.87;1.93;;;14.70;98.70;;;;;;4848738;29;20715;-86
2022/09/17 12:01:18;;;;;;;4.60;1.70;;;15.10;99.00;;;;;;4869421;29;20461;-85
2022/09/17 12:04:10;;;;;;;1.97;1.17;;;15.00;97.90;;;;;;4847793;29;20453;-85
2022/09/17 12:07:16;;;;;;;2.30;1.20;;;14.50;97.40;;;;;;4864908;29;21001;-84
2022/09/17 12:09:58;;;;;;;1.40;1.30;;;14.30;98.90;;;;;;4863614;29;20547;-85
2022/09/17 12:12:26;;;;;;;2.63;1.20;;;14.20;99.40;;;;;;4866904;29;20476;-87
2022/09/17 12:15:15;;;;;;;2.57;1.17;;;14.30;99.20;;;;;;4866017;29;20468;-85
2022/09/17 12:17:58;;;;;;;1.57;1.10;;;14.30;97.10;;;;;;4844086;29;20853;-86
2022/09/17 12:20:41;;;;;;;2.90;1.33;;;14.40;97.30;;;;;;4847876;29;20441;-86
2022/09/17 12:23:45;;;;;;;3.93;1.20;;;14.60;98.10;;;;;;4829977;29;20444;-86
2022/09/17 12:26:35;;;;;;;1.60;0.90;;;14.30;98.20;;;;;;4862756;29;20486;-86
2022/09/17 12:29:44;;;;;;;1.90;1.10;;;14.00;97.40;;;;;;4870942;29;20460;-86
2022/09/17 12:32:34;;;;;;;1.77;1.03;;;13.90;97.10;;;;;;4866469;29;20936;-87
2022/09/17 12:35:00;;;;;;;1.73;0.90;;;14.00;96.70;;;;;;4846308;29;20441;-86
2022/09/17 12:37:51;;;;;;;1.37;1.13;;;14.00;97.80;;;;;;4876686;29;20452;-86
2022/09/17 12:40:46;;;;;;;1.90;1.40;;;13.80;98.40;;;;;;4847567;29;20202;-86
2022/09/17 12:43:27;;;;;;;1.70;1.07;;;13.60;99.00;;;;;;4844520;29;20454;-85
2022/09/17 12:46:27;;;;;;;2.20;1.80;;;13.40;99.20;;;;;;4849905;29;20989;-85
2022/09/17 12:49:00;;;;;;;2.77;1.63;;;13.30;99.90;;;;;;4864759;29;20453;-86
2022/09/17 12:51:41;;;;;;;1.90;1.60;;;13.20;99.90;;;;;;4846051;29;20498;-86
2022/09/17 12:54:32;;;;;;;2.03;1.40;;;13.40;99.90;;;;;;4853275;29;20468;-87
2022/09/17 12:57:24;;;;;;;2.43;1.33;;;13.60;99.90;;;;;;4855665;29;21800;-86
2022/09/17 12:59:59;;;;;;;3.30;1.10;;;14.10;99.90;;;;;;4859820;29;20453;-86
2022/09/17 13:02:55;;;;;;;1.20;1.13;;;14.70;98.00;;;;;;4846791;29;20525;-86
2022/09/17 13:05:35;;;;;;;2.13;1.37;;;14.50;97.50;;;;;;4864333;29;20527;-87
2022/09/17 13:08:24;;;;;;;3.03;1.70;;;14.40;98.50;;;;;;4849183;29;20445;-84
2022/09/17 13:11:09;;;;;;;2.60;1.50;;;13.70;99.90;;;;;;4860694;29;20453;-84
2022/09/17 13:14:00;;;;;;;3.57;1.10;;;12.90;99.90;;;;;;4848554;29;20495;-85
2022/09/17 13:17:05;;;;;;;2.90;1.60;;;12.50;99.90;;;;;;4849674;29;21034;-86
2022/09/17 13:19:46;;;;;;;2.37;2.07;;;12.50;99.90;;;;;;4842965;29;22215;-87
2022/09/17 13:22:20;;;;;;;4.20;3.80;;;12.40;99.90;;;;;;4851061;29;20963;-86
2022/09/17 13:25:01;;;;;;;6.40;1.77;;;12.30;99.90;;;;;;4845630;29;20444;-86
2022/09/17 13:27:30;;;;;;;2.40;0.93;;;12.20;99.90;;;;;;4850576;29;20470;-84
2022/09/17 13:29:56;;;;;;;1.13;0.70;;;11.80;99.90;;;;;;4849189;29;20508;-85
2022/09/17 13:32:34;;;;;;;0.80;0.80;;;11.10;99.90;;;;;;4850673;29;20819;-85
2022/09/17 13:35:08;;;;;;;1.83;1.50;;;10.50;99.90;;;;;;4865972;29;20982;-86